Time;durP1;ratioP1;P1;durP2;ratioP2;P2;SDS_P1;SDS_P2;PMS_P1;PMS_P2;Temp;Humidity;BMP_temperature;BMP_pressure;BME280_temperature;BME280_humidity;BME280_pressure;Samples;Min_cycle;Max_cycle;Signal;HPM_P1;HPM_P2
2024/04/25 00:00:21;;;;;;;;;;;14.10;69.10;;;;;;5192950;27;85265;-47
2024/04/25 00:02:52;;;;;;;;;;;14.10;69.10;;;;;;5209773;27;85370;-47
2024/04/25 00:05:18;;;;;;;;;;;14.20;69.10;;;;;;5214466;27;87020;-46
2024/04/25 00:07:44;;;;;;;;;;;14.10;69.10;;;;;;5194025;27;87458;-46
2024/04/25 00:10:09;;;;;;;;;;;14.10;69.20;;;;;;5210500;27;86365;-47
2024/04/25 00:12:35;;;;;;;;;;;14.10;69.20;;;;;;5211093;27;87636;-47
2024/04/25 00:15:00;;;;;;;;;;;14.10;69.20;;;;;;5195609;27;85432;-47
2024/04/25 00:17:26;;;;;;;;;;;14.10;69.20;;;;;;5213466;27;86700;-47
2024/04/25 00:19:51;;;;;;;;;;;14.10;69.20;;;;;;5205908;27;85692;-46
2024/04/25 00:22:17;;;;;;;;;;;14.10;69.30;;;;;;5201306;27;85180;-47
2024/04/25 00:24:42;;;;;;;;;;;14.10;69.30;;;;;;5219647;26;86466;-48
2024/04/25 00:27:10;;;;;;;;;;;14.10;69.20;;;;;;5212735;27;85241;-47
2024/04/25 00:29:37;;;;;;;;;;;14.10;69.30;;;;;;5202959;27;85650;-47
2024/04/25 00:32:03;;;;;;;;;;;14.10;69.20;;;;;;5203487;27;86663;-47
2024/04/25 00:34:28;;;;;;;;;;;14.10;69.30;;;;;;5196967;27;87431;-45
2024/04/25 00:36:54;;;;;;;;;;;14.00;69.30;;;;;;5218632;27;86212;-45
2024/04/25 00:39:19;;;;;;;;;;;14.00;69.30;;;;;;5212963;27;86027;-47
2024/04/25 00:41:45;;;;;;;;;;;14.00;69.30;;;;;;5197689;27;85255;-47
2024/04/25 00:44:10;;;;;;;;;;;14.00;69.30;;;;;;5218161;27;85307;-45
2024/04/25 00:46:36;;;;;;;;;;;14.00;69.30;;;;;;5212083;26;85918;-47
2024/04/25 00:49:02;;;;;;;;;;;14.00;69.40;;;;;;5211071;27;84840;-46
2024/04/25 00:51:28;;;;;;;;;;;14.00;69.30;;;;;;5221770;27;87124;-46
2024/04/25 00:53:53;;;;;;;;;;;14.00;69.40;;;;;;5206919;27;85555;-46
2024/04/25 00:56:20;;;;;;;;;;;14.00;69.40;;;;;;5213805;27;86698;-47
2024/04/25 00:58:48;;;;;;;;;;;14.00;69.30;;;;;;5219837;27;86013;-47
2024/04/25 01:01:15;;;;;;;;;;;13.90;69.40;;;;;;5200463;27;85623;-46
2024/04/25 01:03:42;;;;;;;;;;;14.00;69.40;;;;;;5209161;27;85588;-45
2024/04/25 01:06:07;;;;;;;;;;;13.90;69.40;;;;;;5213399;27;86135;-47
2024/04/25 01:08:33;;;;;;;;;;;13.90;69.30;;;;;;5211301;27;86305;-46
2024/04/25 01:10:59;;;;;;;;;;;13.90;69.40;;;;;;5215843;27;86958;-46
2024/04/25 01:13:25;;;;;;;;;;;13.90;69.40;;;;;;5206195;27;85133;-47
2024/04/25 01:15:50;;;;;;;;;;;13.90;69.40;;;;;;5210305;27;85284;-47
2024/04/25 01:18:16;;;;;;;;;;;13.90;70.00;;;;;;5218216;27;85779;-46
2024/04/25 01:20:42;;;;;;;;;;;13.90;69.50;;;;;;5195046;27;87120;-47
2024/04/25 01:23:10;;;;;;;;;;;13.90;69.30;;;;;;5212265;26;87521;-46
2024/04/25 01:25:36;;;;;;;;;;;13.90;69.50;;;;;;5214635;26;88577;-48
2024/04/25 01:28:03;;;;;;;;;;;13.90;69.50;;;;;;5203581;27;86050;-47
2024/04/25 01:30:29;;;;;;;;;;;13.80;69.50;;;;;;5215555;27;86651;-45
2024/04/25 01:32:55;;;;;;;;;;;13.80;69.50;;;;;;5211646;27;85434;-47
2024/04/25 01:35:21;;;;;;;;;;;13.80;69.60;;;;;;5204798;27;85827;-47
2024/04/25 01:37:48;;;;;;;;;;;13.80;69.50;;;;;;5216141;27;86209;-47
2024/04/25 01:40:13;;;;;;;;;;;13.80;69.60;;;;;;5203836;27;85646;-45
2024/04/25 01:42:39;;;;;;;;;;;13.80;69.50;;;;;;5213999;27;86410;-46
2024/04/25 01:45:05;;;;;;;;;;;13.80;69.50;;;;;;5212055;27;86134;-45
2024/04/25 01:47:30;;;;;;;;;;;13.80;69.50;;;;;;5202321;27;85351;-46
2024/04/25 01:49:56;;;;;;;;;;;13.80;69.60;;;;;;5209960;27;85798;-45
2024/04/25 01:52:21;;;;;;;;;;;13.80;69.60;;;;;;5206390;27;86156;-46
2024/04/25 01:54:47;;;;;;;;;;;13.80;69.60;;;;;;5198072;27;85524;-46
2024/04/25 01:57:12;;;;;;;;;;;13.70;69.60;;;;;;5210225;27;87076;-46
2024/04/25 01:59:38;;;;;;;;;;;13.80;69.60;;;;;;5211900;27;86092;-46
2024/04/25 02:02:04;;;;;;;;;;;13.70;69.50;;;;;;5202170;27;86498;-45
2024/04/25 02:04:29;;;;;;;;;;;13.70;69.50;;;;;;5209617;27;85777;-45
2024/04/25 02:06:55;;;;;;;;;;;13.70;69.60;;;;;;5203950;27;85535;-47
2024/04/25 02:09:20;;;;;;;;;;;13.70;69.50;;;;;;5203235;27;86571;-48
2024/04/25 02:11:46;;;;;;;;;;;13.70;69.60;;;;;;5221643;27;86022;-45
2024/04/25 02:14:11;;;;;;;;;;;13.70;69.70;;;;;;5191357;27;86571;-47
2024/04/25 02:16:37;;;;;;;;;;;13.70;69.60;;;;;;5207924;27;86009;-46
2024/04/25 02:19:02;;;;;;;;;;;13.70;69.60;;;;;;5212468;27;85364;-48
2024/04/25 02:27:07;;;;;;;;;;;13.70;69.70;;;;;;5238840;26;86281;-47
2024/04/25 02:29:33;;;;;;;;;;;13.60;69.50;;;;;;5212008;27;86066;-46
2024/04/25 02:31:58;;;;;;;;;;;13.60;69.60;;;;;;5224345;26;85927;-46
2024/04/25 02:34:24;;;;;;;;;;;13.60;69.60;;;;;;5208488;27;86719;-46
2024/04/25 02:36:49;;;;;;;;;;;13.60;69.60;;;;;;5216167;27;85906;-47
2024/04/25 02:39:15;;;;;;;;;;;13.60;69.60;;;;;;5210797;27;85539;-47
2024/04/25 02:41:40;;;;;;;;;;;13.60;69.60;;;;;;5198695;27;86491;-47
2024/04/25 02:44:06;;;;;;;;;;;13.60;69.60;;;;;;5205962;27;87053;-47
2024/04/25 02:46:32;;;;;;;;;;;13.60;69.60;;;;;;5209746;26;85308;-46
2024/04/25 02:48:58;;;;;;;;;;;13.60;69.60;;;;;;5211165;27;86626;-44
2024/04/25 02:51:23;;;;;;;;;;;13.60;69.60;;;;;;5225241;27;85397;-45
2024/04/25 02:53:49;;;;;;;;;;;13.50;69.60;;;;;;5202237;27;85794;-44
2024/04/25 02:56:16;;;;;;;;;;;13.50;69.60;;;;;;5210742;26;86760;-46
2024/04/25 02:58:42;;;;;;;;;;;13.50;69.80;;;;;;5216967;27;86292;-46
2024/04/25 03:01:08;;;;;;;;;;;13.50;69.80;;;;;;5197490;27;86519;-47
2024/04/25 03:03:33;;;;;;;;;;;13.50;69.70;;;;;;5216862;27;87221;-46
2024/04/25 03:05:59;;;;;;;;;;;13.50;69.80;;;;;;5208754;27;85391;-44
2024/04/25 03:08:25;;;;;;;;;;;13.50;69.80;;;;;;5206337;27;86645;-47
2024/04/25 03:10:50;;;;;;;;;;;13.50;69.90;;;;;;5204924;27;88701;-47
2024/04/25 03:13:16;;;;;;;;;;;13.50;69.90;;;;;;5211609;27;85351;-48
2024/04/25 03:15:42;;;;;;;;;;;13.50;69.80;;;;;;5215860;27;86664;-46
2024/04/25 03:18:07;;;;;;;;;;;13.50;69.80;;;;;;5219648;27;86971;-47
2024/04/25 03:20:35;;;;;;;;;;;13.50;69.80;;;;;;5210004;27;85588;-47
2024/04/25 03:23:01;;;;;;;;;;;13.40;70.30;;;;;;5206338;27;86191;-46
2024/04/25 03:25:26;;;;;;;;;;;13.40;69.70;;;;;;5220720;27;85221;-47
2024/04/25 03:27:52;;;;;;;;;;;13.40;69.70;;;;;;5199868;27;85650;-45
2024/04/25 03:30:18;;;;;;;;;;;13.40;69.70;;;;;;5207559;27;87130;-47
2024/04/25 03:32:43;;;;;;;;;;;13.40;69.80;;;;;;5208993;27;86273;-46
2024/04/25 03:35:09;;;;;;;;;;;13.40;69.80;;;;;;5205228;27;86527;-45
2024/04/25 03:37:34;;;;;;;;;;;13.40;69.70;;;;;;5205664;27;87085;-46
2024/04/25 03:40:00;;;;;;;;;;;13.40;69.70;;;;;;5205760;27;85318;-45
2024/04/25 03:42:25;;;;;;;;;;;13.40;69.80;;;;;;5196086;27;85442;-44
2024/04/25 03:44:52;;;;;;;;;;;13.30;69.80;;;;;;5213757;27;85465;-45
2024/04/25 03:47:17;;;;;;;;;;;13.40;69.80;;;;;;5196048;27;86781;-46
2024/04/25 03:49:43;;;;;;;;;;;13.30;69.80;;;;;;5196788;27;86038;-46
2024/04/25 03:52:09;;;;;;;;;;;13.30;69.80;;;;;;5198004;27;85289;-45
2024/04/25 03:54:34;;;;;;;;;;;13.30;69.80;;;;;;5201907;27;86671;-47
2024/04/25 03:57:00;;;;;;;;;;;13.30;69.80;;;;;;5199179;27;87248;-45
2024/04/25 03:59:26;;;;;;;;;;;13.30;69.80;;;;;;5206179;27;85674;-44
2024/04/25 04:01:52;;;;;;;;;;;13.30;69.80;;;;;;5203010;27;86675;-46
2024/04/25 04:04:17;;;;;;;;;;;13.30;69.90;;;;;;5193862;27;85367;-46
2024/04/25 04:06:43;;;;;;;;;;;13.30;69.90;;;;;;5196490;27;85871;-45
2024/04/25 04:09:08;;;;;;;;;;;13.30;69.80;;;;;;5201566;27;86216;-45
2024/04/25 04:11:34;;;;;;;;;;;13.30;69.80;;;;;;5206396;27;88338;-46
2024/04/25 04:14:00;;;;;;;;;;;13.30;69.90;;;;;;5202740;27;87622;-45
2024/04/25 04:16:25;;;;;;;;;;;13.30;70.50;;;;;;5205642;27;85430;-45
2024/04/25 04:18:51;;;;;;;;;;;13.30;70.00;;;;;;5203215;27;85891;-45
2024/04/25 04:21:16;;;;;;;;;;;13.20;69.80;;;;;;5199600;27;85240;-45
2024/04/25 04:23:43;;;;;;;;;;;13.20;69.80;;;;;;5202816;27;85762;-46
2024/04/25 04:26:09;;;;;;;;;;;13.20;69.90;;;;;;5223940;27;86377;-45
2024/04/25 04:28:34;;;;;;;;;;;13.20;69.90;;;;;;5203010;27;86311;-46
2024/04/25 04:31:00;;;;;;;;;;;13.20;70.00;;;;;;5199146;27;85445;-45
2024/04/25 04:33:26;;;;;;;;;;;13.20;70.10;;;;;;5212691;27;85693;-44
2024/04/25 04:35:51;;;;;;;;;;;13.20;70.00;;;;;;5208538;27;87935;-46
2024/04/25 04:38:17;;;;;;;;;;;13.20;70.00;;;;;;5214937;27;85313;-47
2024/04/25 04:40:42;;;;;;;;;;;13.20;69.90;;;;;;5202337;27;86896;-45
2024/04/25 04:43:08;;;;;;;;;;;13.20;70.00;;;;;;5208144;27;86864;-46
2024/04/25 04:45:34;;;;;;;;;;;13.10;70.00;;;;;;5219906;27;85693;-45
2024/04/25 04:47:59;;;;;;;;;;;13.10;70.00;;;;;;5198121;27;86810;-44
2024/04/25 04:50:25;;;;;;;;;;;13.10;69.90;;;;;;5207271;27;87573;-43
2024/04/25 04:52:51;;;;;;;;;;;13.10;69.90;;;;;;5204600;27;86765;-45
2024/04/25 04:55:16;;;;;;;;;;;13.10;69.90;;;;;;5198489;27;87173;-44
2024/04/25 04:57:42;;;;;;;;;;;13.10;69.90;;;;;;5203311;27;85753;-45
2024/04/25 05:00:08;;;;;;;;;;;13.10;70.00;;;;;;5197828;27;86350;-44
2024/04/25 05:02:34;;;;;;;;;;;13.10;70.10;;;;;;5204931;26;87088;-44
2024/04/25 05:04:59;;;;;;;;;;;13.00;70.00;;;;;;5223291;27;85367;-43
2024/04/25 05:07:25;;;;;;;;;;;13.10;70.10;;;;;;5199394;27;88095;-44
2024/04/25 05:09:51;;;;;;;;;;;13.10;70.20;;;;;;5205003;27;85526;-45
2024/04/25 05:12:16;;;;;;;;;;;13.00;70.10;;;;;;5214125;27;86433;-45
2024/04/25 05:14:42;;;;;;;;;;;13.00;70.20;;;;;;5201150;27;85694;-45
2024/04/25 05:17:07;;;;;;;;;;;13.00;70.10;;;;;;5208856;27;85036;-45
2024/04/25 05:19:33;;;;;;;;;;;13.00;70.20;;;;;;5204252;27;85895;-45
2024/04/25 05:21:59;;;;;;;;;;;13.00;70.10;;;;;;5202826;27;87460;-44
2024/04/25 05:24:24;;;;;;;;;;;13.00;70.20;;;;;;5204712;27;86786;-45
2024/04/25 05:26:50;;;;;;;;;;;13.00;70.20;;;;;;5206253;27;86221;-45
2024/04/25 05:29:15;;;;;;;;;;;13.00;70.20;;;;;;5201039;27;86269;-44
2024/04/25 05:31:41;;;;;;;;;;;13.00;70.10;;;;;;5205570;27;86625;-44
2024/04/25 05:34:06;;;;;;;;;;;13.00;70.10;;;;;;5198908;27;86974;-45
2024/04/25 05:36:33;;;;;;;;;;;13.00;70.30;;;;;;5215512;27;85396;-44
2024/04/25 05:38:58;;;;;;;;;;;13.00;70.10;;;;;;5208902;27;86666;-44
2024/04/25 05:41:24;;;;;;;;;;;13.00;70.10;;;;;;5207859;27;86733;-44
2024/04/25 05:43:51;;;;;;;;;;;12.90;70.20;;;;;;5215469;26;85756;-46
2024/04/25 05:46:18;;;;;;;;;;;12.90;71.00;;;;;;5220687;27;85524;-45
2024/04/25 05:48:43;;;;;;;;;;;12.90;70.10;;;;;;5192351;27;88213;-44
2024/04/25 05:51:09;;;;;;;;;;;13.00;70.20;;;;;;5193322;27;86456;-44
2024/04/25 05:53:34;;;;;;;;;;;12.90;70.10;;;;;;5201830;27;85746;-45
2024/04/25 05:56:00;;;;;;;;;;;12.90;70.30;;;;;;5191517;27;85875;-44
2024/04/25 05:58:25;;;;;;;;;;;12.90;70.30;;;;;;5202473;27;86934;-43
2024/04/25 06:00:51;;;;;;;;;;;12.90;70.40;;;;;;5204792;26;86915;-45
2024/04/25 06:03:17;;;;;;;;;;;12.90;70.30;;;;;;5208656;27;86260;-44
2024/04/25 06:05:42;;;;;;;;;;;12.90;70.20;;;;;;5200908;27;86735;-44
2024/04/25 06:08:08;;;;;;;;;;;12.80;70.20;;;;;;5205194;27;87570;-45
2024/04/25 06:10:33;;;;;;;;;;;12.80;70.30;;;;;;5207150;27;85956;-45
2024/04/25 06:12:59;;;;;;;;;;;12.80;70.40;;;;;;5198374;27;86856;-44
2024/04/25 06:15:24;;;;;;;;;;;12.80;70.30;;;;;;5200050;27;85450;-43
2024/04/25 06:17:50;;;;;;;;;;;12.80;70.40;;;;;;5211286;27;87020;-44
2024/04/25 06:20:17;;;;;;;;;;;12.90;70.40;;;;;;5212820;27;87032;-45
2024/04/25 06:22:43;;;;;;;;;;;12.80;70.20;;;;;;5210521;27;85381;-46
2024/04/25 06:25:08;;;;;;;;;;;12.80;70.10;;;;;;5211352;27;86594;-43
2024/04/25 06:27:34;;;;;;;;;;;12.80;70.20;;;;;;5201868;27;86886;-46
2024/04/25 06:29:59;;;;;;;;;;;12.80;70.20;;;;;;5213281;27;84605;-44
2024/04/25 06:32:25;;;;;;;;;;;12.80;70.20;;;;;;5223301;27;87256;-44
2024/04/25 06:34:51;;;;;;;;;;;12.80;70.10;;;;;;5196176;27;85483;-46
2024/04/25 06:37:17;;;;;;;;;;;12.90;70.20;;;;;;5205547;27;87843;-45
2024/04/25 06:39:42;;;;;;;;;;;12.80;70.10;;;;;;5214822;27;87207;-45
2024/04/25 06:42:08;;;;;;;;;;;12.90;70.10;;;;;;5196306;27;85280;-44
2024/04/25 06:44:34;;;;;;;;;;;12.80;70.10;;;;;;5261956;26;88118;-44
2024/04/25 06:47:00;;;;;;;;;;;12.80;70.10;;;;;;5215086;27;86987;-43
2024/04/25 06:49:25;;;;;;;;;;;12.80;70.20;;;;;;5210271;27;85542;-44
2024/04/25 06:51:51;;;;;;;;;;;12.80;70.10;;;;;;5212703;27;85405;-45
2024/04/25 06:54:19;;;;;;;;;;;12.80;70.10;;;;;;5207401;27;84642;-44
2024/04/25 06:56:45;;;;;;;;;;;12.80;70.10;;;;;;5206965;27;86142;-45
2024/04/25 06:59:10;;;;;;;;;;;12.80;70.10;;;;;;5224737;27;87144;-45
2024/04/25 07:01:36;;;;;;;;;;;12.80;70.10;;;;;;5198888;27;86167;-46
2024/04/25 07:04:01;;;;;;;;;;;12.80;70.10;;;;;;5208020;27;87472;-44
2024/04/25 07:06:27;;;;;;;;;;;12.80;70.20;;;;;;5201353;27;86999;-44
2024/04/25 07:08:59;;;;;;;;;;;12.80;70.30;;;;;;5203866;27;85372;-46
2024/04/25 07:11:25;;;;;;;;;;;12.70;70.20;;;;;;5269362;26;89227;-45
2024/04/25 07:13:51;;;;;;;;;;;12.70;70.20;;;;;;5197900;27;86962;-44
2024/04/25 07:16:17;;;;;;;;;;;12.80;70.20;;;;;;5206992;27;85369;-44
2024/04/25 07:18:42;;;;;;;;;;;12.70;70.30;;;;;;5217534;27;86640;-45
2024/04/25 07:21:08;;;;;;;;;;;12.70;70.20;;;;;;5201382;27;85410;-44
2024/04/25 07:23:33;;;;;;;;;;;12.70;70.30;;;;;;5205774;27;85258;-44
2024/04/25 07:25:59;;;;;;;;;;;12.70;70.30;;;;;;5218850;27;86832;-45
2024/04/25 07:28:24;;;;;;;;;;;12.70;70.40;;;;;;5197107;27;85674;-45
2024/04/25 07:30:50;;;;;;;;;;;12.70;70.40;;;;;;5213740;27;86642;-45
2024/04/25 07:33:15;;;;;;;;;;;12.70;70.40;;;;;;5200386;27;87117;-45
2024/04/25 07:35:42;;;;;;;;;;;12.70;70.40;;;;;;5209471;27;85673;-44
2024/04/25 07:38:07;;;;;;;;;;;12.70;70.60;;;;;;5213546;27;87042;-46
2024/04/25 07:40:36;;;;;;;;;;;12.70;70.50;;;;;;5206477;27;85381;-44
2024/04/25 07:43:05;;;;;;;;;;;12.70;70.50;;;;;;5202289;27;86677;-43
2024/04/25 07:45:30;;;;;;;;;;;12.70;70.60;;;;;;5219504;26;86005;-46
2024/04/25 07:47:56;;;;;;;;;;;12.70;70.60;;;;;;5212234;27;86780;-44
2024/04/25 07:50:22;;;;;;;;;;;12.70;70.60;;;;;;5204849;27;86851;-44
2024/04/25 07:52:47;;;;;;;;;;;12.70;70.50;;;;;;5211428;27;87333;-45
2024/04/25 07:55:13;;;;;;;;;;;12.70;70.70;;;;;;5210698;27;85610;-45
2024/04/25 07:57:38;;;;;;;;;;;12.60;70.50;;;;;;5207446;27;85913;-44
2024/04/25 08:00:07;;;;;;;;;;;12.60;70.60;;;;;;5201275;27;86335;-44
2024/04/25 08:02:37;;;;;;;;;;;12.70;70.60;;;;;;5204691;27;86830;-46
2024/04/25 08:05:06;;;;;;;;;;;12.60;70.50;;;;;;5223027;27;85801;-46
2024/04/25 08:07:32;;;;;;;;;;;12.70;70.60;;;;;;5224499;26;84634;-45
2024/04/25 08:09:57;;;;;;;;;;;12.70;70.60;;;;;;5234731;27;85844;-45
2024/04/25 08:12:24;;;;;;;;;;;12.70;70.50;;;;;;5217969;27;85186;-45
2024/04/25 08:14:50;;;;;;;;;;;12.70;70.60;;;;;;5230559;27;86338;-45
2024/04/25 08:17:16;;;;;;;;;;;12.60;70.70;;;;;;5239824;27;86109;-45
2024/04/25 08:19:41;;;;;;;;;;;12.70;70.60;;;;;;5234299;27;85327;-45
2024/04/25 08:22:07;;;;;;;;;;;12.60;70.60;;;;;;5229957;26;86555;-45
2024/04/25 08:24:33;;;;;;;;;;;12.60;70.70;;;;;;5233260;27;86903;-45
2024/04/25 08:26:58;;;;;;;;;;;12.60;70.60;;;;;;5211164;27;86068;-44
2024/04/25 08:29:24;;;;;;;;;;;12.60;70.70;;;;;;5234005;27;86365;-45
2024/04/25 08:31:51;;;;;;;;;;;12.60;70.70;;;;;;5235011;26;86294;-46
2024/04/25 08:34:16;;;;;;;;;;;12.60;70.70;;;;;;5228136;27;85420;-45
2024/04/25 08:36:42;;;;;;;;;;;12.60;70.70;;;;;;5232820;27;85280;-44
2024/04/25 08:39:07;;;;;;;;;;;12.60;70.80;;;;;;5234496;26;87949;-44
2024/04/25 08:41:34;;;;;;;;;;;12.60;70.80;;;;;;5231479;27;87494;-44
2024/04/25 08:44:00;;;;;;;;;;;12.60;70.80;;;;;;5235028;27;87465;-45
2024/04/25 08:46:26;;;;;;;;;;;12.60;71.10;;;;;;5232859;27;85318;-44
2024/04/25 08:48:53;;;;;;;;;;;12.60;70.60;;;;;;5226827;27;86944;-45
2024/04/25 08:51:25;;;;;;;;;;;12.70;70.50;;;;;;5235856;27;86000;-45
2024/04/25 08:53:52;;;;;;;;;;;12.60;70.60;;;;;;5226129;27;85179;-44
2024/04/25 08:56:18;;;;;;;;;;;12.70;70.60;;;;;;5232236;26;86557;-45
2024/04/25 08:58:45;;;;;;;;;;;12.70;70.60;;;;;;5231906;26;86055;-45
2024/04/25 09:01:12;;;;;;;;;;;12.70;70.50;;;;;;5238146;26;85186;-45
2024/04/25 09:03:38;;;;;;;;;;;12.70;70.60;;;;;;5228117;26;86600;-44
2024/04/25 09:06:06;;;;;;;;;;;12.70;70.30;;;;;;5238629;27;85357;-47
2024/04/25 09:08:31;;;;;;;;;;;12.70;70.30;;;;;;5232527;26;86501;-46
2024/04/25 09:10:59;;;;;;;;;;;12.70;70.40;;;;;;5222535;27;85637;-45
2024/04/25 09:13:24;;;;;;;;;;;12.70;70.70;;;;;;5209274;27;86020;-45
2024/04/25 09:15:50;;;;;;;;;;;12.70;70.50;;;;;;5204899;27;86325;-44
2024/04/25 09:18:16;;;;;;;;;;;12.60;70.60;;;;;;5214510;27;87520;-46
2024/04/25 09:20:41;;;;;;;;;;;12.60;70.70;;;;;;5200420;27;84724;-45
2024/04/25 09:23:07;;;;;;;;;;;12.60;70.70;;;;;;5218752;27;86732;-45
2024/04/25 09:25:33;;;;;;;;;;;12.60;70.70;;;;;;5219001;26;85666;-43
2024/04/25 09:28:01;;;;;;;;;;;12.60;70.80;;;;;;5206193;27;87199;-44
2024/04/25 09:30:26;;;;;;;;;;;12.60;70.60;;;;;;5205178;27;85697;-45
2024/04/25 09:32:52;;;;;;;;;;;12.60;70.80;;;;;;5204350;27;85911;-45
2024/04/25 09:35:18;;;;;;;;;;;12.60;70.70;;;;;;5201066;27;86629;-44
2024/04/25 09:37:44;;;;;;;;;;;12.60;71.00;;;;;;5219307;27;87085;-46
2024/04/25 09:40:10;;;;;;;;;;;12.60;70.90;;;;;;5199209;27;86154;-45
2024/04/25 09:42:36;;;;;;;;;;;12.60;71.00;;;;;;5209429;27;86504;-45
2024/04/25 09:45:06;;;;;;;;;;;12.60;70.90;;;;;;5214889;27;86013;-44
2024/04/25 09:47:36;;;;;;;;;;;12.50;70.80;;;;;;5201398;27;85820;-44
2024/04/25 09:50:07;;;;;;;;;;;12.50;70.90;;;;;;5210937;26;86915;-45
2024/04/25 09:52:35;;;;;;;;;;;12.60;70.90;;;;;;5209561;27;86317;-45
2024/04/25 09:55:06;;;;;;;;;;;12.50;70.90;;;;;;5205229;27;87851;-46
2024/04/25 09:57:32;;;;;;;;;;;12.60;71.00;;;;;;5217727;27;86266;-45
2024/04/25 10:00:01;;;;;;;;;;;12.50;70.90;;;;;;5211428;27;85931;-45
2024/04/25 10:02:27;;;;;;;;;;;12.50;70.90;;;;;;5206971;27;87278;-44
2024/04/25 10:04:55;;;;;;;;;;;12.50;70.90;;;;;;5212566;26;86223;-44
2024/04/25 10:07:21;;;;;;;;;;;12.50;70.90;;;;;;5201004;26;86417;-45
2024/04/25 10:09:48;;;;;;;;;;;12.50;71.10;;;;;;5205937;27;84989;-45
2024/04/25 10:12:20;;;;;;;;;;;12.50;71.00;;;;;;5205159;27;86084;-44
2024/04/25 10:15:02;;;;;;;;;;;12.50;71.10;;;;;;5202900;27;86695;-43
2024/04/25 10:17:28;;;;;;;;;;;12.50;71.00;;;;;;5215659;27;86781;-44
2024/04/25 10:19:54;;;;;;;;;;;12.50;71.10;;;;;;5200277;27;85877;-44
2024/04/25 10:22:23;;;;;;;;;;;12.40;71.10;;;;;;5205953;27;86590;-44
2024/04/25 10:24:52;;;;;;;;;;;12.40;71.30;;;;;;5225742;26;86841;-45
2024/04/25 10:27:18;;;;;;;;;;;12.40;71.30;;;;;;5203185;27;85887;-44
2024/04/25 10:29:59;;;;;;;;;;;12.40;71.30;;;;;;5203841;27;87038;-45
2024/04/25 10:32:25;;;;;;;;;;;12.40;71.30;;;;;;5203580;27;85633;-44
2024/04/25 10:34:52;;;;;;;;;;;12.40;71.30;;;;;;5203654;27;86762;-44
2024/04/25 10:37:18;;;;;;;;;;;12.40;71.20;;;;;;5210278;27;85945;-45
2024/04/25 10:39:44;;;;;;;;;;;12.40;71.10;;;;;;5202157;27;85800;-45
2024/04/25 10:42:21;;;;;;;;;;;12.40;71.30;;;;;;5206612;27;86600;-46
2024/04/25 10:44:48;;;;;;;;;;;12.40;71.30;;;;;;5222030;27;86206;-45
2024/04/25 10:47:17;;;;;;;;;;;12.40;71.40;;;;;;5207709;27;85905;-45
2024/04/25 10:49:43;;;;;;;;;;;12.40;71.20;;;;;;5207825;27;86712;-45
2024/04/25 10:52:08;;;;;;;;;;;12.40;71.20;;;;;;5209459;26;85521;-45
2024/04/25 10:54:34;;;;;;;;;;;12.40;71.30;;;;;;5230060;27;86570;-45
2024/04/25 10:57:03;;;;;;;;;;;12.40;71.30;;;;;;5220838;26;87412;-45
2024/04/25 10:59:29;;;;;;;;;;;12.40;71.20;;;;;;5204026;27;84815;-47
2024/04/25 11:02:01;;;;;;;;;;;12.40;71.30;;;;;;5215358;27;87827;-45
2024/04/25 11:04:30;;;;;;;;;;;12.40;71.10;;;;;;5218995;27;87345;-46
2024/04/25 11:06:56;;;;;;;;;;;12.40;71.30;;;;;;5209493;27;86328;-45
2024/04/25 11:09:23;;;;;;;;;;;12.40;71.30;;;;;;5213343;27;88359;-46
2024/04/25 11:11:48;;;;;;;;;;;12.40;71.20;;;;;;5211497;27;86885;-45
2024/04/25 11:14:14;;;;;;;;;;;12.40;71.30;;;;;;5213949;27;87093;-43
2024/04/25 11:16:40;;;;;;;;;;;12.40;71.20;;;;;;5207548;27;87109;-44
2024/04/25 11:19:06;;;;;;;;;;;12.40;71.40;;;;;;5207860;27;85367;-46
2024/04/25 11:21:32;;;;;;;;;;;12.40;71.40;;;;;;5209798;27;86862;-47
2024/04/25 11:23:57;;;;;;;;;;;12.40;71.40;;;;;;5228553;27;85100;-46
2024/04/25 11:26:23;;;;;;;;;;;12.40;71.50;;;;;;5209986;27;85746;-46
2024/04/25 11:28:49;;;;;;;;;;;12.40;71.50;;;;;;5206671;27;86586;-44
2024/04/25 11:31:14;;;;;;;;;;;12.30;72.20;;;;;;5210045;27;87263;-44
2024/04/25 11:33:40;;;;;;;;;;;12.30;71.50;;;;;;5209389;27;86106;-44
2024/04/25 11:36:06;;;;;;;;;;;12.30;71.50;;;;;;5208131;27;86345;-43
2024/04/25 11:41:16;;;;;;;;;;;12.30;71.40;;;;;;5213476;27;85531;-43
2024/04/25 11:43:41;;;;;;;;;;;12.30;71.70;;;;;;5234168;27;85683;-42
2024/04/25 11:46:07;;;;;;;;;;;12.30;71.50;;;;;;5199136;26;85543;-46
2024/04/25 11:48:32;;;;;;;;;;;12.30;71.60;;;;;;5202130;26;86613;-44
2024/04/25 11:50:58;;;;;;;;;;;12.40;71.60;;;;;;5228510;27;86294;-44
2024/04/25 11:53:23;;;;;;;;;;;12.40;71.40;;;;;;5205583;27;85688;-44
2024/04/25 11:55:49;;;;;;;;;;;12.40;71.60;;;;;;5215868;27;86166;-44
2024/04/25 11:58:15;;;;;;;;;;;12.30;71.50;;;;;;5222586;27;85927;-43
2024/04/25 12:00:41;;;;;;;;;;;12.40;71.60;;;;;;5206014;27;86464;-45
2024/04/25 12:03:07;;;;;;;;;;;12.40;71.40;;;;;;5227015;27;85326;-44
2024/04/25 12:05:33;;;;;;;;;;;12.40;71.50;;;;;;5212355;27;85520;-45
2024/04/25 12:08:03;;;;;;;;;;;12.40;71.40;;;;;;5195656;27;86613;-45
2024/04/25 12:10:30;;;;;;;;;;;12.40;71.40;;;;;;5224456;27;88261;-45
2024/04/25 12:12:56;;;;;;;;;;;12.40;71.40;;;;;;5211988;27;85174;-45
2024/04/25 12:15:21;;;;;;;;;;;12.40;71.30;;;;;;5215384;27;86942;-44
2024/04/25 12:17:47;;;;;;;;;;;12.40;71.50;;;;;;5211496;27;86932;-44
2024/04/25 12:20:13;;;;;;;;;;;12.40;71.40;;;;;;5202837;27;86617;-45
2024/04/25 12:22:38;;;;;;;;;;;12.40;71.30;;;;;;5218763;27;87332;-44
2024/04/25 12:25:04;;;;;;;;;;;12.40;71.50;;;;;;5214133;27;85802;-44
2024/04/25 12:27:29;;;;;;;;;;;12.40;71.40;;;;;;5203102;27;85990;-44
2024/04/25 12:29:55;;;;;;;;;;;12.40;71.50;;;;;;5222392;27;85912;-43
2024/04/25 12:32:20;;;;;;;;;;;12.30;71.50;;;;;;5216123;27;85658;-45
2024/04/25 12:34:46;;;;;;;;;;;12.30;71.50;;;;;;5214093;27;85554;-43
2024/04/25 12:37:11;;;;;;;;;;;12.30;71.60;;;;;;5215107;27;85548;-44
2024/04/25 12:39:41;;;;;;;;;;;12.30;71.40;;;;;;5224387;27;85486;-45
2024/04/25 12:42:07;;;;;;;;;;;12.30;71.40;;;;;;5212485;27;87153;-44
2024/04/25 12:44:33;;;;;;;;;;;12.30;71.50;;;;;;5210684;27;86962;-43
2024/04/25 12:46:58;;;;;;;;;;;12.30;71.60;;;;;;5205041;27;85407;-44
2024/04/25 12:49:31;;;;;;;;;;;12.30;71.60;;;;;;5204909;27;86071;-43
2024/04/25 12:51:57;;;;;;;;;;;12.30;71.60;;;;;;5215129;27;85640;-44
2024/04/25 12:54:23;;;;;;;;;;;12.30;71.50;;;;;;5201490;27;86097;-44
2024/04/25 12:56:48;;;;;;;;;;;12.30;71.70;;;;;;5222524;26;87297;-44
2024/04/25 12:59:14;;;;;;;;;;;12.30;71.50;;;;;;5216779;26;85350;-45
2024/04/25 13:01:40;;;;;;;;;;;12.30;71.40;;;;;;5213194;27;86548;-43
2024/04/25 13:04:06;;;;;;;;;;;12.30;71.50;;;;;;5228052;27;85252;-44
2024/04/25 13:06:32;;;;;;;;;;;12.30;71.40;;;;;;5205766;27;87386;-43
2024/04/25 13:08:57;;;;;;;;;;;12.30;71.50;;;;;;5214191;27;86778;-43
2024/04/25 13:11:23;;;;;;;;;;;12.30;71.40;;;;;;5240034;27;85722;-44
2024/04/25 13:13:48;;;;;;;;;;;12.30;71.50;;;;;;5208012;26;85625;-44
2024/04/25 13:16:14;;;;;;;;;;;12.30;71.40;;;;;;5210252;26;86219;-44
2024/04/25 13:18:41;;;;;;;;;;;12.30;71.50;;;;;;5201946;27;85457;-43
2024/04/25 13:21:07;;;;;;;;;;;12.30;71.40;;;;;;5213314;27;85883;-44
2024/04/25 13:23:33;;;;;;;;;;;12.30;71.40;;;;;;5223579;27;85305;-43
2024/04/25 13:25:59;;;;;;;;;;;12.30;71.30;;;;;;5205714;26;85305;-43
2024/04/25 13:28:24;;;;;;;;;;;12.30;71.30;;;;;;5208711;27;86945;-43
2024/04/25 13:30:50;;;;;;;;;;;12.30;71.40;;;;;;5220574;26;85695;-44
2024/04/25 13:33:15;;;;;;;;;;;12.30;71.50;;;;;;5223682;27;87650;-45
2024/04/25 13:35:41;;;;;;;;;;;12.30;71.60;;;;;;5216050;27;87407;-43
2024/04/25 13:38:08;;;;;;;;;;;12.30;71.40;;;;;;5219424;27;85431;-43
2024/04/25 13:40:34;;;;;;;;;;;12.30;71.50;;;;;;5203633;26;86334;-44
2024/04/25 13:43:00;;;;;;;;;;;12.30;71.50;;;;;;5225169;27;86032;-45
2024/04/25 13:45:25;;;;;;;;;;;12.30;71.50;;;;;;5200157;26;86548;-44
2024/04/25 13:47:51;;;;;;;;;;;12.30;71.50;;;;;;5204164;27;85851;-45
2024/04/25 13:50:17;;;;;;;;;;;12.30;71.70;;;;;;5222549;27;84755;-43
2024/04/25 13:52:42;;;;;;;;;;;12.30;71.60;;;;;;5208269;27;85838;-43
2024/04/25 13:55:08;;;;;;;;;;;12.30;71.60;;;;;;5218309;26;85849;-43
2024/04/25 13:57:33;;;;;;;;;;;12.30;71.70;;;;;;5218674;27;86576;-43
2024/04/25 13:59:59;;;;;;;;;;;12.30;71.70;;;;;;5214615;27;86503;-44
2024/04/25 14:02:24;;;;;;;;;;;12.30;71.70;;;;;;5213839;27;86212;-44
2024/04/25 14:04:50;;;;;;;;;;;12.20;71.70;;;;;;5234658;26;85559;-43
2024/04/25 14:07:15;;;;;;;;;;;12.20;71.60;;;;;;5207472;27;87267;-43
2024/04/25 14:09:41;;;;;;;;;;;12.30;71.70;;;;;;5210635;27;85637;-44
2024/04/25 14:12:07;;;;;;;;;;;12.30;71.60;;;;;;5212463;27;86826;-43
2024/04/25 14:14:32;;;;;;;;;;;12.30;71.80;;;;;;5212746;27;86363;-43
2024/04/25 14:16:58;;;;;;;;;;;12.20;71.60;;;;;;5216025;27;85501;-44